LH22 EDDH-EDDS
Flight info
| Callsign | LH22 |
|---|---|
| Flight time | N/A |
| Altitude | 35000 |
| Route | IDEKO7G/33 IDEKO N850 NIE DCT BERXO DCT SILWE DCT OSBIT P605 TOSTU T726 LBU DCT |
| Aircraft | A320/M-SDE3FGHIRWY/LB1 |
Departure
| Time | 2026-05-06 16:27 |
|---|---|
| Airport | Hamburg Helmut Schmidt Airport (EDDH) |
Arrival
| Time | N/A |
|---|---|
| Airport | Stuttgart Airport (EDDS) |
| Time | Latitude | Longitude | Altitude | Speed | Heading |
|---|---|---|---|---|---|
| 2026-05-06 15:57 | 53.63006 | 10.00357 | 49 ft | 0 kts | 123° |
| 2026-05-06 16:12 | 53.63008 | 10.00350 | 48 ft | 3 kts | 123° |
| 2026-05-06 16:12 | 53.63023 | 10.00313 | 47 ft | 4 kts | 123° |
| 2026-05-06 16:12 | 53.63038 | 10.00275 | 44 ft | 4 kts | 123° |
| 2026-05-06 16:13 | 53.63052 | 10.00241 | 45 ft | 4 kts | 145° |
| 2026-05-06 16:13 | 53.63075 | 10.00229 | 44 ft | 4 kts | 189° |
| 2026-05-06 16:13 | 53.63090 | 10.00235 | 44 ft | 1 kts | 202° |
| 2026-05-06 16:13 | 53.63092 | 10.00237 | 48 ft | 0 kts | 202° |
| 2026-05-06 16:15 | 53.63091 | 10.00236 | 48 ft | 2 kts | 202° |
| 2026-05-06 16:16 | 53.63051 | 10.00204 | 45 ft | 7 kts | 209° |
| 2026-05-06 16:16 | 53.62993 | 10.00143 | 48 ft | 12 kts | 213° |
| 2026-05-06 16:16 | 53.62924 | 10.00070 | 45 ft | 11 kts | 212° |
| 2026-05-06 16:16 | 53.62906 | 10.00054 | 48 ft | 0 kts | 207° |
| 2026-05-06 16:17 | 53.62904 | 10.00052 | 48 ft | 3 kts | 206° |
| 2026-05-06 16:17 | 53.62851 | 9.99978 | 48 ft | 0 kts | 235° |
| 2026-05-06 16:18 | 53.62825 | 9.99909 | 47 ft | 14 kts | 239° |
| 2026-05-06 16:18 | 53.62830 | 9.99775 | 45 ft | 7 kts | 326° |
| 2026-05-06 16:19 | 53.62831 | 9.99774 | 45 ft | 0 kts | 326° |
| 2026-05-06 16:26 | 53.62930 | 9.99684 | 45 ft | 55 kts | 333° |
| 2026-05-06 16:27 | 53.63551 | 9.99156 | 47 ft | 142 kts | 333° |
| 2026-05-06 16:27 | 53.64602 | 9.98248 | 367 ft | 184 kts | 334° |
| 2026-05-06 16:27 | 53.65711 | 9.97263 | 1379 ft | 179 kts | 337° |
| 2026-05-06 16:27 | 53.66841 | 9.96286 | 1956 ft | 191 kts | 339° |
| 2026-05-06 16:28 | 53.68091 | 9.95238 | 2421 ft | 208 kts | 339° |
| 2026-05-06 16:28 | 53.69408 | 9.94128 | 3135 ft | 214 kts | 339° |
| 2026-05-06 16:28 | 53.70698 | 9.92808 | 4008 ft | 224 kts | 320° |
| 2026-05-06 16:28 | 53.71445 | 9.90461 | 4729 ft | 244 kts | 280° |
| 2026-05-06 16:29 | 53.71295 | 9.87479 | 5236 ft | 270 kts | 257° |
| 2026-05-06 16:29 | 53.70738 | 9.84364 | 6028 ft | 282 kts | 251° |
| 2026-05-06 16:29 | 53.70062 | 9.81224 | 6936 ft | 287 kts | 250° |
| 2026-05-06 16:29 | 53.69357 | 9.78056 | 7915 ft | 290 kts | 250° |
| 2026-05-06 16:30 | 53.68659 | 9.74841 | 8859 ft | 294 kts | 250° |
| 2026-05-06 16:30 | 53.68197 | 9.72648 | 9540 ft | 294 kts | 251° |
| 2026-05-06 16:30 | 53.67285 | 9.68225 | 10318 ft | 315 kts | 249° |
| 2026-05-06 16:30 | 53.66271 | 9.64802 | 10590 ft | 338 kts | 236° |
| 2026-05-06 16:31 | 53.64743 | 9.61629 | 10831 ft | 359 kts | 223° |
| 2026-05-06 16:31 | 53.62733 | 9.59045 | 11402 ft | 367 kts | 209° |
| 2026-05-06 16:31 | 53.60398 | 9.57296 | 12154 ft | 369 kts | 195° |
| 2026-05-06 16:31 | 53.57888 | 9.56481 | 12985 ft | 368 kts | 186° |
| 2026-05-06 16:32 | 53.55345 | 9.55975 | 13805 ft | 369 kts | 186° |
| 2026-05-06 16:32 | 53.52780 | 9.55470 | 14481 ft | 372 kts | 186° |
| 2026-05-06 16:32 | 53.50195 | 9.54965 | 15133 ft | 375 kts | 186° |
| 2026-05-06 16:32 | 53.47593 | 9.54456 | 15756 ft | 378 kts | 187° |
| 2026-05-06 16:33 | 53.44969 | 9.53943 | 16366 ft | 382 kts | 187° |
| 2026-05-06 16:33 | 53.42321 | 9.53426 | 16964 ft | 384 kts | 187° |
| 2026-05-06 16:33 | 53.39653 | 9.52899 | 17588 ft | 387 kts | 187° |
| 2026-05-06 16:34 | 53.34252 | 9.51827 | 18669 ft | 394 kts | 187° |
| 2026-05-06 16:34 | 53.31516 | 9.51288 | 19172 ft | 398 kts | 187° |
| 2026-05-06 16:34 | 53.28756 | 9.50747 | 19700 ft | 401 kts | 187° |
| 2026-05-06 16:34 | 53.25977 | 9.50206 | 20229 ft | 403 kts | 187° |
| 2026-05-06 16:35 | 53.23183 | 9.49665 | 20738 ft | 406 kts | 187° |
| 2026-05-06 16:35 | 53.20365 | 9.49120 | 21222 ft | 409 kts | 187° |
| 2026-05-06 16:35 | 53.17525 | 9.48568 | 21660 ft | 413 kts | 187° |
| 2026-05-06 16:35 | 53.14659 | 9.48014 | 22137 ft | 415 kts | 187° |
| 2026-05-06 16:36 | 53.11784 | 9.47459 | 22603 ft | 417 kts | 187° |
| 2026-05-06 16:36 | 53.08892 | 9.46898 | 23038 ft | 420 kts | 187° |
| 2026-05-06 16:36 | 53.05977 | 9.46332 | 23439 ft | 423 kts | 187° |
| 2026-05-06 16:36 | 53.03039 | 9.45762 | 23772 ft | 427 kts | 186° |
| 2026-05-06 16:37 | 53.00083 | 9.45192 | 24182 ft | 429 kts | 186° |
| 2026-05-06 16:37 | 52.97118 | 9.44608 | 24597 ft | 430 kts | 187° |
| 2026-05-06 16:37 | 52.94144 | 9.43984 | 24950 ft | 432 kts | 187° |
| 2026-05-06 16:37 | 52.91153 | 9.43333 | 25281 ft | 435 kts | 187° |
| 2026-05-06 16:38 | 52.88141 | 9.42671 | 25617 ft | 437 kts | 187° |
| 2026-05-06 16:38 | 52.85118 | 9.42008 | 25940 ft | 440 kts | 188° |
| 2026-05-06 16:38 | 52.83105 | 9.41568 | 26170 ft | 441 kts | 188° |
| 2026-05-06 16:38 | 52.80055 | 9.40908 | 26478 ft | 444 kts | 188° |
| 2026-05-06 16:39 | 52.76983 | 9.40252 | 26765 ft | 447 kts | 188° |
| 2026-05-06 16:39 | 52.73897 | 9.39600 | 27078 ft | 449 kts | 188° |
| 2026-05-06 16:39 | 52.70788 | 9.38946 | 27416 ft | 450 kts | 188° |
| 2026-05-06 16:39 | 52.67675 | 9.38291 | 27755 ft | 452 kts | 188° |
| 2026-05-06 16:40 | 52.64539 | 9.37746 | 28068 ft | 455 kts | 183° |
| 2026-05-06 16:40 | 52.61375 | 9.37908 | 28459 ft | 456 kts | 175° |
| 2026-05-06 16:40 | 52.58251 | 9.38839 | 28886 ft | 456 kts | 168° |
| 2026-05-06 16:40 | 52.55165 | 9.40007 | 29316 ft | 455 kts | 168° |
| 2026-05-06 16:41 | 52.52084 | 9.41161 | 29740 ft | 454 kts | 169° |
| 2026-05-06 16:41 | 52.49003 | 9.42305 | 30123 ft | 453 kts | 169° |
| 2026-05-06 16:41 | 52.45933 | 9.43446 | 30481 ft | 452 kts | 169° |
| 2026-05-06 16:41 | 52.42869 | 9.44587 | 30847 ft | 451 kts | 169° |
| 2026-05-06 16:42 | 52.39812 | 9.45728 | 31220 ft | 450 kts | 169° |
| 2026-05-06 16:42 | 52.36764 | 9.46866 | 31595 ft | 448 kts | 169° |
| 2026-05-06 16:42 | 52.33731 | 9.47996 | 32006 ft | 446 kts | 169° |
| 2026-05-06 16:42 | 52.30714 | 9.49116 | 32401 ft | 444 kts | 169° |
| 2026-05-06 16:43 | 52.27701 | 9.50234 | 32785 ft | 443 kts | 170° |
| 2026-05-06 16:43 | 52.24701 | 9.51345 | 33168 ft | 441 kts | 170° |
| 2026-05-06 16:43 | 52.21714 | 9.52447 | 33552 ft | 440 kts | 170° |
| 2026-05-06 16:43 | 52.18733 | 9.53544 | 33917 ft | 439 kts | 170° |
| 2026-05-06 16:44 | 52.15758 | 9.54638 | 34230 ft | 438 kts | 170° |
| 2026-05-06 16:44 | 52.12788 | 9.55731 | 34512 ft | 438 kts | 170° |
| 2026-05-06 16:44 | 52.09819 | 9.56824 | 34756 ft | 438 kts | 170° |
| 2026-05-06 16:45 | 52.03861 | 9.59009 | 34823 ft | 439 kts | 170° |
| 2026-05-06 16:45 | 51.97898 | 9.61170 | 34819 ft | 439 kts | 170° |
| 2026-05-06 16:46 | 51.91936 | 9.63350 | 34821 ft | 439 kts | 170° |
| 2026-05-06 16:46 | 51.85977 | 9.65524 | 34819 ft | 439 kts | 170° |
| 2026-05-06 16:47 | 51.80010 | 9.67681 | 34820 ft | 439 kts | 170° |
| 2026-05-06 16:47 | 51.74048 | 9.69832 | 34821 ft | 439 kts | 170° |
| 2026-05-06 16:48 | 51.68091 | 9.71982 | 34795 ft | 439 kts | 171° |
| 2026-05-06 16:48 | 51.62139 | 9.74125 | 34800 ft | 438 kts | 170° |
| 2026-05-06 16:49 | 51.56197 | 9.76258 | 34808 ft | 437 kts | 170° |
| 2026-05-06 16:49 | 51.50257 | 9.78393 | 34810 ft | 437 kts | 170° |
| 2026-05-06 16:50 | 51.44324 | 9.80511 | 34811 ft | 437 kts | 171° |
| 2026-05-06 16:50 | 51.38389 | 9.82611 | 34796 ft | 437 kts | 171° |
| 2026-05-06 16:51 | 51.32460 | 9.84712 | 34789 ft | 437 kts | 171° |
| 2026-05-06 16:51 | 51.26522 | 9.86817 | 34789 ft | 437 kts | 171° |
| 2026-05-06 16:52 | 51.20541 | 9.88040 | 34790 ft | 431 kts | 184° |
| 2026-05-06 16:52 | 51.14556 | 9.87533 | 34782 ft | 431 kts | 185° |
| 2026-05-06 16:53 | 51.08580 | 9.87003 | 34801 ft | 430 kts | 185° |
| 2026-05-06 16:53 | 51.02619 | 9.86475 | 34803 ft | 429 kts | 185° |
| 2026-05-06 16:54 | 50.96660 | 9.85956 | 34792 ft | 428 kts | 185° |
| 2026-05-06 16:54 | 50.90714 | 9.85442 | 34546 ft | 425 kts | 187° |
| 2026-05-06 16:54 | 50.87775 | 9.85192 | 34727 ft | 422 kts | 187° |
| 2026-05-06 16:55 | 50.84843 | 9.84938 | 34780 ft | 422 kts | 187° |
| 2026-05-06 16:55 | 50.78982 | 9.84429 | 34795 ft | 422 kts | 187° |
| 2026-05-06 16:56 | 50.73127 | 9.83921 | 34790 ft | 421 kts | 187° |
| 2026-05-06 16:56 | 50.67289 | 9.83416 | 34791 ft | 420 kts | 187° |
| 2026-05-06 16:57 | 50.61454 | 9.82918 | 34772 ft | 420 kts | 187° |
| 2026-05-06 16:57 | 50.55611 | 9.82418 | 34774 ft | 420 kts | 187° |
| 2026-05-06 16:58 | 50.49768 | 9.81915 | 34769 ft | 421 kts | 187° |